Time;durP1;ratioP1;P1;durP2;ratioP2;P2;SDS_P1;SDS_P2;PMS_P1;PMS_P2;Temp;Humidity;BMP_temperature;BMP_pressure;BME280_temperature;BME280_humidity;BME280_pressure;Samples;Min_cycle;Max_cycle;Signal;HPM_P1;HPM_P2
2022/12/18 00:01:00;;;;;;;;;;;19.00;39.00;;;;;;4952578;28;20340;-54
2022/12/18 00:03:25;;;;;;;;;;;19.00;38.40;;;;;;4953279;28;20366;-54
2022/12/18 00:05:51;;;;;;;;;;;19.00;38.60;;;;;;4950627;28;20412;-54
2022/12/18 00:08:17;;;;;;;;;;;19.00;38.80;;;;;;4950962;29;19926;-54
2022/12/18 00:10:42;;;;;;;;;;;19.00;38.70;;;;;;4973817;28;20166;-54
2022/12/18 00:13:07;;;;;;;;;;;19.10;38.80;;;;;;4951430;29;19921;-54
2022/12/18 00:15:34;;;;;;;;;;;19.10;38.80;;;;;;4950577;28;19968;-54
2022/12/18 00:17:59;;;;;;;;;;;19.10;38.30;;;;;;4951459;28;20331;-54
2022/12/18 00:20:25;;;;;;;;;;;19.10;38.90;;;;;;4952576;28;20108;-54
2022/12/18 00:22:51;;;;;;;;;;;19.20;39.00;;;;;;4951905;28;19914;-54
2022/12/18 00:25:17;;;;;;;;;;;19.20;39.30;;;;;;4951638;28;20345;-54
2022/12/18 00:27:42;;;;;;;;;;;19.20;38.70;;;;;;4932372;29;20079;-54
2022/12/18 00:30:08;;;;;;;;;;;19.20;39.30;;;;;;4951649;29;19921;-54
2022/12/18 00:32:33;;;;;;;;;;;19.20;38.40;;;;;;4951580;28;19914;-54
2022/12/18 00:34:59;;;;;;;;;;;19.20;37.80;;;;;;4951750;29;19918;-54
2022/12/18 00:37:24;;;;;;;;;;;19.20;38.20;;;;;;4952614;28;19924;-54
2022/12/18 00:39:50;;;;;;;;;;;19.20;38.30;;;;;;4950434;29;19954;-54
2022/12/18 00:44:59;;;;;;;;;;;19.10;37.70;;;;;;4951000;29;19937;-54
2022/12/18 00:47:25;;;;;;;;;;;19.10;37.70;;;;;;4945277;29;19919;-53
2022/12/18 00:49:50;;;;;;;;;;;19.10;38.00;;;;;;4949371;29;19914;-55
2022/12/18 00:52:16;;;;;;;;;;;19.10;37.70;;;;;;4982989;28;19914;-53
2022/12/18 00:54:41;;;;;;;;;;;19.10;37.90;;;;;;4950068;28;19915;-53
2022/12/18 00:57:06;;;;;;;;;;;19.00;37.80;;;;;;4944682;29;19921;-53
2022/12/18 00:59:32;;;;;;;;;;;19.00;38.10;;;;;;4943436;29;20009;-53
2022/12/18 01:01:57;;;;;;;;;;;19.00;37.70;;;;;;4944969;29;20011;-53
2022/12/18 01:04:23;;;;;;;;;;;19.00;37.70;;;;;;4944906;29;19926;-53
2022/12/18 01:06:48;;;;;;;;;;;19.00;38.00;;;;;;4950010;28;19989;-53
2022/12/18 01:09:13;;;;;;;;;;;18.90;37.80;;;;;;4949472;29;19919;-53
2022/12/18 01:11:39;;;;;;;;;;;18.90;37.40;;;;;;4988685;28;20214;-54
2022/12/18 01:14:04;;;;;;;;;;;18.90;38.90;;;;;;4949001;29;20406;-54
2022/12/18 01:16:30;;;;;;;;;;;18.90;38.90;;;;;;4949852;29;19925;-53
2022/12/18 01:18:55;;;;;;;;;;;18.90;38.40;;;;;;4950436;28;19941;-54
2022/12/18 01:21:21;;;;;;;;;;;18.90;38.10;;;;;;4950806;29;19914;-54
2022/12/18 01:23:47;;;;;;;;;;;18.90;38.30;;;;;;4951136;28;20468;-54
2022/12/18 01:26:13;;;;;;;;;;;19.00;38.30;;;;;;4933633;28;20390;-54
2022/12/18 01:28:39;;;;;;;;;;;19.10;38.80;;;;;;4962104;28;19918;-54
2022/12/18 01:31:19;;;;;;;;;;;19.10;38.40;;;;;;4949891;29;20201;-53
2022/12/18 01:33:48;;;;;;;;;;;19.10;37.30;;;;;;4954254;28;19923;-54
2022/12/18 01:36:32;;;;;;;;;;;19.10;37.60;;;;;;4957563;28;20275;-54
2022/12/18 01:39:02;;;;;;;;;;;19.10;38.30;;;;;;4957211;28;19915;-54
2022/12/18 01:44:31;;;;;;;;;;;19.00;36.80;;;;;;4966740;28;20409;-54
2022/12/18 01:46:57;;;;;;;;;;;19.00;36.80;;;;;;4956194;29;19922;-54
2022/12/18 01:49:22;;;;;;;;;;;19.00;36.70;;;;;;4954390;29;19933;-53
2022/12/18 01:51:47;;;;;;;;;;;19.00;36.60;;;;;;4956268;28;19914;-53
2022/12/18 01:54:13;;;;;;;;;;;19.00;36.60;;;;;;4955967;28;19921;-54
2022/12/18 01:56:38;;;;;;;;;;;18.90;36.60;;;;;;4955648;29;20005;-53
2022/12/18 01:59:04;;;;;;;;;;;18.90;36.60;;;;;;4949652;28;20306;-53
2022/12/18 02:01:30;;;;;;;;;;;18.90;37.20;;;;;;4988630;28;19922;-53
2022/12/18 02:03:55;;;;;;;;;;;18.90;36.70;;;;;;5003604;28;19929;-53
2022/12/18 02:06:24;;;;;;;;;;;18.90;36.90;;;;;;4954369;29;19968;-54
2022/12/18 02:08:56;;;;;;;;;;;18.90;37.50;;;;;;4956329;28;19919;-54
2022/12/18 02:11:29;;;;;;;;;;;18.90;36.90;;;;;;4954279;29;19980;-53
2022/12/18 02:14:04;;;;;;;;;;;18.90;36.60;;;;;;4968229;28;19919;-53
2022/12/18 02:16:33;;;;;;;;;;;18.90;38.10;;;;;;4986139;28;20368;-53
2022/12/18 02:19:00;;;;;;;;;;;18.90;37.80;;;;;;5015435;28;20377;-53
2022/12/18 02:21:25;;;;;;;;;;;19.00;37.80;;;;;;4952763;28;20009;-53
2022/12/18 02:24:09;;;;;;;;;;;19.00;37.90;;;;;;4956320;28;20021;-53
2022/12/18 02:26:38;;;;;;;;;;;19.00;37.60;;;;;;4954165;28;20023;-53
2022/12/18 02:29:17;;;;;;;;;;;19.10;36.80;;;;;;4953190;28;20273;-53
2022/12/18 02:31:44;;;;;;;;;;;19.10;37.20;;;;;;4956100;28;19914;-53
2022/12/18 02:34:09;;;;;;;;;;;19.00;36.30;;;;;;4939193;29;19914;-53
2022/12/18 02:36:35;;;;;;;;;;;19.00;36.20;;;;;;4959109;28;20062;-53
2022/12/18 02:39:00;;;;;;;;;;;19.00;36.10;;;;;;4956630;28;19915;-54
2022/12/18 02:41:26;;;;;;;;;;;18.90;36.30;;;;;;4956843;28;20005;-54
2022/12/18 02:44:01;;;;;;;;;;;18.90;36.40;;;;;;4955724;29;20354;-54
2022/12/18 02:46:27;;;;;;;;;;;18.90;36.20;;;;;;4951658;28;20009;-54
2022/12/18 02:48:53;;;;;;;;;;;18.90;36.30;;;;;;4953382;29;20045;-54
2022/12/18 02:51:39;;;;;;;;;;;18.90;36.20;;;;;;4936174;28;20522;-54
2022/12/18 02:54:06;;;;;;;;;;;18.90;36.40;;;;;;4950540;28;20032;-54
2022/12/18 02:56:35;;;;;;;;;;;18.80;36.50;;;;;;4945106;28;20014;-54
2022/12/18 02:59:12;;;;;;;;;;;18.80;36.50;;;;;;4960060;28;20279;-54
2022/12/18 03:01:52;;;;;;;;;;;18.70;36.40;;;;;;4936431;28;20374;-53
2022/12/18 03:04:22;;;;;;;;;;;18.60;36.70;;;;;;4983443;28;19968;-54
2022/12/18 03:06:49;;;;;;;;;;;18.50;36.80;;;;;;4951901;28;19918;-54
2022/12/18 03:09:15;;;;;;;;;;;18.50;36.80;;;;;;4951417;28;20362;-54
2022/12/18 03:14:25;;;;;;;;;;;18.50;36.80;;;;;;4950700;29;19922;-54
2022/12/18 03:16:52;;;;;;;;;;;18.70;37.90;;;;;;4952353;28;19922;-54
2022/12/18 03:19:18;;;;;;;;;;;18.90;37.40;;;;;;4935807;29;19910;-54
2022/12/18 03:21:47;;;;;;;;;;;19.10;36.50;;;;;;4955395;28;20072;-54
2022/12/18 03:24:13;;;;;;;;;;;19.20;37.00;;;;;;4944835;28;19914;-54
2022/12/18 03:26:40;;;;;;;;;;;19.20;36.60;;;;;;4996163;28;19926;-54
2022/12/18 03:29:16;;;;;;;;;;;19.30;36.20;;;;;;4999077;28;20005;-54
2022/12/18 03:31:42;;;;;;;;;;;19.30;36.40;;;;;;4946560;28;20378;-54
2022/12/18 03:34:15;;;;;;;;;;;19.30;36.50;;;;;;4989207;28;19950;-54
2022/12/18 03:36:40;;;;;;;;;;;19.20;36.40;;;;;;4991679;28;19926;-54
2022/12/18 03:39:06;;;;;;;;;;;19.20;36.80;;;;;;4966483;28;19919;-54
2022/12/18 03:41:32;;;;;;;;;;;19.10;35.70;;;;;;4951744;29;19915;-54
2022/12/18 03:44:07;;;;;;;;;;;19.00;36.50;;;;;;4949550;29;19997;-54
2022/12/18 03:46:45;;;;;;;;;;;19.00;35.60;;;;;;4950737;29;19915;-54
2022/12/18 03:49:29;;;;;;;;;;;18.90;36.00;;;;;;4951273;28;19926;-54
2022/12/18 03:51:57;;;;;;;;;;;18.90;35.50;;;;;;4992677;28;20349;-54
2022/12/18 03:54:22;;;;;;;;;;;18.80;35.60;;;;;;5009655;28;20370;-54
2022/12/18 03:56:48;;;;;;;;;;;18.80;35.70;;;;;;4951294;28;19918;-53
2022/12/18 03:59:14;;;;;;;;;;;18.80;35.80;;;;;;4949372;28;19918;-53
2022/12/18 04:01:41;;;;;;;;;;;18.80;35.50;;;;;;4951717;28;19985;-52
2022/12/18 04:04:06;;;;;;;;;;;18.70;35.50;;;;;;4950271;29;19936;-53
2022/12/18 04:06:35;;;;;;;;;;;18.70;35.70;;;;;;4990091;28;19918;-53
2022/12/18 04:09:00;;;;;;;;;;;18.70;36.90;;;;;;4950862;28;19929;-53
2022/12/18 04:11:26;;;;;;;;;;;18.80;37.00;;;;;;4951172;29;20290;-52
2022/12/18 04:13:54;;;;;;;;;;;18.90;36.20;;;;;;4948731;28;20271;-55
2022/12/18 04:16:20;;;;;;;;;;;18.90;35.70;;;;;;4950847;28;20370;-53
2022/12/18 04:18:45;;;;;;;;;;;19.00;36.60;;;;;;4949206;28;19922;-53
2022/12/18 04:21:11;;;;;;;;;;;19.00;36.30;;;;;;4950664;29;19914;-53
2022/12/18 04:23:36;;;;;;;;;;;19.20;36.40;;;;;;4953027;28;20009;-53
2022/12/18 04:26:02;;;;;;;;;;;19.20;36.40;;;;;;4949923;28;19918;-53
2022/12/18 04:28:27;;;;;;;;;;;19.10;35.80;;;;;;4949651;29;19922;-53
2022/12/18 04:30:52;;;;;;;;;;;19.10;36.20;;;;;;4946551;28;19996;-53
2022/12/18 04:33:18;;;;;;;;;;;19.00;36.50;;;;;;4951036;28;19963;-53
2022/12/18 04:35:43;;;;;;;;;;;18.90;36.40;;;;;;4952418;28;19918;-53
2022/12/18 04:38:09;;;;;;;;;;;18.90;36.20;;;;;;4951386;29;20290;-53
2022/12/18 04:40:35;;;;;;;;;;;18.80;35.60;;;;;;4951660;28;19918;-54
2022/12/18 04:43:01;;;;;;;;;;;18.70;35.30;;;;;;4949974;28;19919;-54
2022/12/18 04:45:26;;;;;;;;;;;18.70;35.50;;;;;;4951529;29;19915;-54
2022/12/18 04:47:51;;;;;;;;;;;18.70;35.40;;;;;;4951302;29;19918;-53
2022/12/18 04:50:17;;;;;;;;;;;18.70;35.50;;;;;;4951280;29;19921;-53
2022/12/18 04:52:42;;;;;;;;;;;18.70;35.50;;;;;;4976286;28;19922;-53
2022/12/18 04:55:08;;;;;;;;;;;18.60;35.80;;;;;;4949842;28;19965;-53
2022/12/18 04:57:33;;;;;;;;;;;18.60;35.70;;;;;;4951280;29;19926;-53
2022/12/18 04:59:59;;;;;;;;;;;18.60;36.00;;;;;;4950153;29;19914;-53
2022/12/18 05:02:24;;;;;;;;;;;18.70;36.70;;;;;;4949802;28;20391;-53
2022/12/18 05:04:50;;;;;;;;;;;18.70;36.50;;;;;;4950216;29;20366;-53
2022/12/18 05:07:15;;;;;;;;;;;18.80;36.50;;;;;;4948869;29;20356;-53
2022/12/18 05:09:40;;;;;;;;;;;18.80;36.20;;;;;;4949187;29;20354;-53
2022/12/18 05:12:06;;;;;;;;;;;18.90;36.20;;;;;;4949821;29;19980;-53
2022/12/18 05:14:31;;;;;;;;;;;19.00;36.10;;;;;;4949932;29;19998;-53
2022/12/18 05:16:57;;;;;;;;;;;19.00;36.00;;;;;;4950746;28;19914;-53
2022/12/18 05:19:22;;;;;;;;;;;19.10;36.00;;;;;;4948792;29;20410;-53
2022/12/18 05:21:48;;;;;;;;;;;19.00;35.80;;;;;;4949373;29;19925;-51
2022/12/18 05:24:13;;;;;;;;;;;19.00;35.70;;;;;;4950961;29;19923;-54
2022/12/18 05:26:39;;;;;;;;;;;18.90;35.80;;;;;;4950167;29;19969;-53
2022/12/18 05:29:04;;;;;;;;;;;18.90;36.00;;;;;;4948388;28;19924;-53
2022/12/18 05:31:29;;;;;;;;;;;18.80;35.50;;;;;;4950148;28;20065;-53
2022/12/18 05:33:55;;;;;;;;;;;18.80;35.60;;;;;;4949458;29;19918;-53
2022/12/18 05:36:20;;;;;;;;;;;18.70;36.50;;;;;;4947208;28;19918;-53
2022/12/18 05:38:46;;;;;;;;;;;18.70;35.00;;;;;;4949883;28;19968;-54
2022/12/18 05:41:11;;;;;;;;;;;18.60;35.30;;;;;;4949666;29;19997;-54
2022/12/18 05:43:37;;;;;;;;;;;18.60;35.80;;;;;;4949643;29;19918;-54
2022/12/18 05:46:06;;;;;;;;;;;18.60;35.60;;;;;;4950331;28;19975;-54
2022/12/18 05:48:31;;;;;;;;;;;18.60;35.30;;;;;;4950282;29;20009;-54
2022/12/18 05:51:02;;;;;;;;;;;18.60;35.50;;;;;;4949945;28;20052;-53
2022/12/18 05:53:27;;;;;;;;;;;18.60;36.00;;;;;;4957491;28;19915;-53
2022/12/18 05:55:53;;;;;;;;;;;18.60;35.10;;;;;;4950015;29;19918;-53
2022/12/18 05:58:18;;;;;;;;;;;18.60;35.00;;;;;;5003642;28;20008;-54
2022/12/18 06:00:44;;;;;;;;;;;18.60;36.10;;;;;;4959507;28;20286;-54
2022/12/18 06:03:10;;;;;;;;;;;18.60;35.70;;;;;;4955089;28;20370;-54
2022/12/18 06:05:36;;;;;;;;;;;18.70;36.50;;;;;;4946575;29;20012;-54
2022/12/18 06:08:01;;;;;;;;;;;18.80;35.80;;;;;;4950535;28;19919;-53
2022/12/18 06:10:27;;;;;;;;;;;18.90;35.70;;;;;;4950464;28;19915;-54
2022/12/18 06:12:52;;;;;;;;;;;18.90;35.50;;;;;;4948329;28;20915;-54
2022/12/18 06:15:18;;;;;;;;;;;18.90;35.50;;;;;;4949934;28;19925;-53
2022/12/18 06:17:43;;;;;;;;;;;18.90;34.70;;;;;;4949400;28;19961;-54
2022/12/18 06:20:09;;;;;;;;;;;18.90;35.60;;;;;;4948964;28;19923;-54
2022/12/18 06:22:34;;;;;;;;;;;18.90;34.90;;;;;;4952560;28;19918;-54
2022/12/18 06:25:00;;;;;;;;;;;18.80;35.40;;;;;;4947666;28;19933;-53
2022/12/18 06:27:25;;;;;;;;;;;18.80;35.70;;;;;;4953387;29;19924;-54
2022/12/18 06:29:51;;;;;;;;;;;18.70;35.70;;;;;;4952170;29;19915;-53
2022/12/18 06:32:16;;;;;;;;;;;18.70;34.70;;;;;;4951552;28;20212;-54
2022/12/18 06:34:42;;;;;;;;;;;18.60;34.70;;;;;;4953110;28;19918;-54
2022/12/18 06:37:07;;;;;;;;;;;18.60;34.70;;;;;;4953451;29;20373;-53
2022/12/18 06:39:33;;;;;;;;;;;18.50;35.10;;;;;;4953165;28;19968;-54
2022/12/18 06:41:58;;;;;;;;;;;18.50;35.50;;;;;;4950754;29;19925;-54
2022/12/18 06:44:24;;;;;;;;;;;18.50;35.50;;;;;;4952176;29;19964;-54
2022/12/18 06:46:49;;;;;;;;;;;18.50;35.00;;;;;;4951837;29;20279;-53
2022/12/18 06:49:15;;;;;;;;;;;18.50;35.70;;;;;;4937233;29;19919;-54
2022/12/18 06:51:41;;;;;;;;;;;18.60;35.40;;;;;;4956404;28;19941;-54
2022/12/18 06:54:06;;;;;;;;;;;18.60;35.80;;;;;;4953549;29;19910;-54
2022/12/18 06:56:32;;;;;;;;;;;18.70;35.70;;;;;;4952792;28;20305;-53
2022/12/18 06:58:57;;;;;;;;;;;18.70;35.20;;;;;;4953237;29;20005;-53
2022/12/18 07:01:23;;;;;;;;;;;18.70;35.30;;;;;;5014315;28;19918;-53
2022/12/18 07:03:51;;;;;;;;;;;18.80;35.30;;;;;;4946390;28;19926;-53
2022/12/18 07:06:18;;;;;;;;;;;18.80;34.90;;;;;;4944783;29;19930;-54
2022/12/18 07:08:43;;;;;;;;;;;18.80;34.90;;;;;;4946010;28;20386;-53
2022/12/18 07:11:09;;;;;;;;;;;18.80;35.00;;;;;;4944623;28;19992;-54
2022/12/18 07:13:34;;;;;;;;;;;18.80;34.70;;;;;;4950632;29;19915;-53
2022/12/18 07:16:06;;;;;;;;;;;18.80;35.20;;;;;;4952780;29;19980;-54
2022/12/18 07:18:32;;;;;;;;;;;18.80;35.30;;;;;;4952826;28;19915;-54
2022/12/18 07:20:57;;;;;;;;;;;18.80;35.30;;;;;;4952315;28;20385;-53
2022/12/18 07:23:23;;;;;;;;;;;18.70;35.10;;;;;;4953523;28;19915;-53
2022/12/18 07:25:48;;;;;;;;;;;18.70;35.40;;;;;;4955912;28;19914;-53
2022/12/18 07:28:14;;;;;;;;;;;18.70;35.30;;;;;;4947742;29;20460;-53
2022/12/18 07:30:40;;;;;;;;;;;18.60;35.10;;;;;;4944804;28;19946;-54
2022/12/18 07:33:05;;;;;;;;;;;18.60;35.10;;;;;;4956977;28;19954;-54
2022/12/18 07:35:32;;;;;;;;;;;18.60;35.10;;;;;;4950234;28;19922;-53
2022/12/18 07:37:57;;;;;;;;;;;18.50;34.90;;;;;;4945620;28;19922;-54
2022/12/18 07:40:23;;;;;;;;;;;18.50;34.70;;;;;;4945665;29;19965;-54
2022/12/18 07:42:48;;;;;;;;;;;18.60;35.90;;;;;;4944255;28;19918;-54
2022/12/18 07:45:13;;;;;;;;;;;18.60;35.00;;;;;;4949683;29;19915;-53
2022/12/18 07:47:41;;;;;;;;;;;18.60;35.10;;;;;;4946087;29;19976;-54
2022/12/18 07:50:06;;;;;;;;;;;18.60;35.30;;;;;;4945259;29;19983;-53
2022/12/18 07:52:32;;;;;;;;;;;18.70;34.80;;;;;;4946891;28;19918;-54
2022/12/18 07:54:57;;;;;;;;;;;18.70;34.90;;;;;;4947306;28;19918;-54
2022/12/18 07:57:23;;;;;;;;;;;18.80;35.00;;;;;;4952939;28;19937;-54
2022/12/18 07:59:48;;;;;;;;;;;18.80;34.20;;;;;;4943967;29;19992;-54
2022/12/18 08:02:14;;;;;;;;;;;18.80;34.60;;;;;;4943412;29;19922;-54
2022/12/18 08:04:39;;;;;;;;;;;18.80;34.60;;;;;;4946235;28;19918;-54
2022/12/18 08:07:05;;;;;;;;;;;18.80;34.80;;;;;;4946360;28;20393;-54
2022/12/18 08:09:31;;;;;;;;;;;18.80;34.40;;;;;;4950976;29;20393;-54
2022/12/18 08:11:56;;;;;;;;;;;18.80;34.70;;;;;;4946248;28;19937;-53
2022/12/18 08:14:22;;;;;;;;;;;18.80;34.50;;;;;;4950075;29;20282;-53
2022/12/18 08:16:48;;;;;;;;;;;18.70;34.70;;;;;;4951069;29;19914;-54
2022/12/18 08:19:13;;;;;;;;;;;18.70;34.70;;;;;;4949576;28;19919;-54
2022/12/18 08:21:38;;;;;;;;;;;18.70;34.40;;;;;;4949050;29;19926;-54
2022/12/18 08:24:04;;;;;;;;;;;18.70;34.30;;;;;;4946192;29;19918;-54
2022/12/18 08:26:30;;;;;;;;;;;18.70;35.00;;;;;;4950028;29;20275;-54
2022/12/18 08:28:56;;;;;;;;;;;19.10;34.50;;;;;;4949469;28;19945;-54
2022/12/18 08:31:21;;;;;;;;;;;19.70;33.30;;;;;;4945328;28;19922;-54
2022/12/18 08:33:50;;;;;;;;;;;20.10;33.00;;;;;;4943150;28;19964;-54
2022/12/18 08:36:15;;;;;;;;;;;20.40;32.40;;;;;;4947068;28;19919;-54
2022/12/18 08:38:41;;;;;;;;;;;20.70;32.10;;;;;;4936053;29;19918;-54
2022/12/18 08:41:07;;;;;;;;;;;20.90;31.90;;;;;;4936499;28;19922;-53
2022/12/18 08:46:17;;;;;;;;;;;21.10;31.60;;;;;;4940580;29;20433;-54
2022/12/18 08:48:43;;;;;;;;;;;21.20;31.40;;;;;;4935890;28;19968;-54
2022/12/18 08:51:12;;;;;;;;;;;21.20;31.30;;;;;;4954777;28;19923;-53
2022/12/18 08:53:37;;;;;;;;;;;21.30;31.40;;;;;;4950136;28;20430;-54
2022/12/18 08:56:03;;;;;;;;;;;21.30;31.20;;;;;;4950172;28;20013;-54
2022/12/18 08:58:28;;;;;;;;;;;21.30;31.20;;;;;;4949691;28;19922;-54
2022/12/18 09:00:54;;;;;;;;;;;21.40;31.20;;;;;;4949125;29;19964;-54
2022/12/18 09:03:22;;;;;;;;;;;21.40;31.20;;;;;;4950738;28;19914;-53
2022/12/18 09:05:47;;;;;;;;;;;21.40;31.20;;;;;;4948215;28;19941;-53
2022/12/18 09:08:13;;;;;;;;;;;21.40;31.10;;;;;;4937174;29;19940;-53
2022/12/18 09:10:42;;;;;;;;;;;21.40;31.10;;;;;;4947620;28;20319;-53
2022/12/18 09:13:07;;;;;;;;;;;21.50;31.30;;;;;;4949294;28;20444;-53
2022/12/18 09:15:32;;;;;;;;;;;21.50;31.10;;;;;;4951543;29;19915;-53
2022/12/18 09:17:58;;;;;;;;;;;21.40;31.10;;;;;;4965028;28;20012;-53
2022/12/18 09:20:24;;;;;;;;;;;21.50;31.20;;;;;;5025171;28;19924;-53
2022/12/18 09:22:49;;;;;;;;;;;21.40;31.20;;;;;;4948069;28;20013;-53
2022/12/18 09:25:15;;;;;;;;;;;21.50;31.10;;;;;;4950322;28;20394;-53
2022/12/18 09:27:40;;;;;;;;;;;21.50;30.80;;;;;;4948775;28;19923;-53
2022/12/18 09:30:06;;;;;;;;;;;21.70;31.10;;;;;;4951295;29;19914;-53
2022/12/18 09:32:31;;;;;;;;;;;21.70;31.00;;;;;;4951258;29;19911;-53
2022/12/18 09:34:57;;;;;;;;;;;21.70;31.00;;;;;;4951089;28;20018;-53
2022/12/18 09:37:22;;;;;;;;;;;21.70;30.90;;;;;;4968065;28;19912;-53
2022/12/18 09:39:48;;;;;;;;;;;21.70;30.80;;;;;;4980434;28;19914;-53
2022/12/18 09:42:20;;;;;;;;;;;21.70;30.80;;;;;;4951878;28;20015;-52
2022/12/18 09:44:48;;;;;;;;;;;21.70;30.80;;;;;;4951174;28;19910;-53
2022/12/18 09:47:36;;;;;;;;;;;21.70;31.20;;;;;;4993557;28;20287;-53
2022/12/18 09:50:02;;;;;;;;;;;21.70;31.20;;;;;;4989884;28;19923;-53
2022/12/18 09:52:35;;;;;;;;;;;21.80;31.20;;;;;;4941981;28;19913;-52
2022/12/18 09:55:03;;;;;;;;;;;22.00;31.10;;;;;;4928958;28;19918;-53
2022/12/18 09:57:28;;;;;;;;;;;22.20;30.90;;;;;;4948255;29;19918;-53
2022/12/18 09:59:55;;;;;;;;;;;22.30;30.80;;;;;;4950367;29;20370;-53
2022/12/18 10:02:21;;;;;;;;;;;22.50;30.60;;;;;;4938769;28;19918;-53
2022/12/18 10:04:50;;;;;;;;;;;22.60;30.70;;;;;;4947358;28;20325;-54
2022/12/18 10:07:20;;;;;;;;;;;22.70;30.60;;;;;;4948490;28;19929;-54
2022/12/18 10:09:52;;;;;;;;;;;22.70;30.50;;;;;;4945520;29;19946;-54
2022/12/18 10:12:23;;;;;;;;;;;22.80;30.60;;;;;;4948519;28;20332;-54
2022/12/18 10:14:54;;;;;;;;;;;22.80;30.40;;;;;;4951961;28;19972;-54
2022/12/18 10:17:35;;;;;;;;;;;22.80;30.30;;;;;;4936284;28;19911;-53
2022/12/18 10:20:00;;;;;;;;;;;22.90;30.30;;;;;;4944697;28;19953;-54
2022/12/18 10:22:26;;;;;;;;;;;22.90;30.30;;;;;;4976952;28;19956;-54
2022/12/18 10:25:06;;;;;;;;;;;23.00;30.30;;;;;;4972938;28;20038;-54
2022/12/18 10:27:31;;;;;;;;;;;23.00;30.30;;;;;;4936033;29;19922;-54
2022/12/18 10:29:57;;;;;;;;;;;23.00;30.40;;;;;;4953660;28;19968;-54
2022/12/18 10:32:24;;;;;;;;;;;23.00;30.40;;;;;;4953641;28;20290;-53
2022/12/18 10:34:51;;;;;;;;;;;23.10;30.60;;;;;;4955981;28;19914;-54
2022/12/18 10:37:18;;;;;;;;;;;23.10;30.80;;;;;;4953121;29;19914;-54
2022/12/18 10:39:44;;;;;;;;;;;23.10;31.10;;;;;;4966054;28;20331;-54
2022/12/18 10:42:10;;;;;;;;;;;23.20;31.30;;;;;;4955314;28;19915;-54
2022/12/18 10:44:36;;;;;;;;;;;23.10;31.50;;;;;;4976784;28;20361;-54
2022/12/18 10:47:04;;;;;;;;;;;23.10;31.50;;;;;;5034991;28;19913;-54
2022/12/18 10:49:31;;;;;;;;;;;23.20;31.60;;;;;;4960659;28;19919;-54
2022/12/18 10:52:15;;;;;;;;;;;23.20;31.70;;;;;;4951808;28;20282;-54
2022/12/18 10:54:45;;;;;;;;;;;23.20;31.70;;;;;;4958662;28;19922;-54
2022/12/18 10:57:14;;;;;;;;;;;23.20;31.80;;;;;;4945536;28;19997;-53
2022/12/18 10:59:52;;;;;;;;;;;23.20;31.80;;;;;;4980777;28;19919;-53
2022/12/18 11:02:24;;;;;;;;;;;23.20;31.90;;;;;;4954254;28;19914;-54
2022/12/18 11:04:50;;;;;;;;;;;23.30;31.80;;;;;;4941598;28;20448;-54
2022/12/18 11:07:16;;;;;;;;;;;23.30;31.90;;;;;;4950519;28;19923;-55
2022/12/18 11:09:41;;;;;;;;;;;23.30;31.90;;;;;;4948340;28;19918;-55
2022/12/18 11:12:09;;;;;;;;;;;23.40;31.80;;;;;;4949359;28;19961;-55
2022/12/18 11:14:41;;;;;;;;;;;23.40;31.80;;;;;;4950836;28;19976;-55
2022/12/18 11:17:16;;;;;;;;;;;23.40;31.80;;;;;;4958677;28;20366;-55
2022/12/18 11:19:41;;;;;;;;;;;23.40;31.80;;;;;;4937820;28;19926;-55
2022/12/18 11:22:19;;;;;;;;;;;23.40;31.70;;;;;;4954145;28;19918;-55
2022/12/18 11:24:49;;;;;;;;;;;23.50;31.80;;;;;;4947940;29;19923;-54
2022/12/18 11:27:15;;;;;;;;;;;23.50;31.80;;;;;;4955058;28;19915;-55
2022/12/18 11:29:41;;;;;;;;;;;23.50;31.90;;;;;;4944842;28;19967;-54
2022/12/18 11:32:12;;;;;;;;;;;23.50;31.80;;;;;;4952032;28;19914;-54
2022/12/18 11:34:38;;;;;;;;;;;23.50;31.80;;;;;;4950756;28;19938;-53
2022/12/18 11:37:03;;;;;;;;;;;23.40;32.50;;;;;;4946265;28;19919;-54
2022/12/18 11:39:48;;;;;;;;;;;23.30;33.20;;;;;;4949748;28;19915;-55
2022/12/18 11:42:20;;;;;;;;;;;23.20;33.50;;;;;;4945087;28;19997;-54
2022/12/18 11:44:50;;;;;;;;;;;23.10;33.90;;;;;;4951322;29;19975;-54
2022/12/18 11:47:19;;;;;;;;;;;23.10;34.10;;;;;;4967259;28;19997;-54
2022/12/18 11:49:44;;;;;;;;;;;23.00;34.40;;;;;;4937395;28;20366;-54
2022/12/18 11:52:23;;;;;;;;;;;22.90;34.40;;;;;;4984911;28;19963;-54
2022/12/18 11:54:53;;;;;;;;;;;22.90;34.60;;;;;;4983828;28;20289;-54
2022/12/18 11:57:34;;;;;;;;;;;22.80;34.70;;;;;;4952884;28;20289;-54
2022/12/18 12:00:09;;;;;;;;;;;22.80;34.70;;;;;;4954246;28;20283;-54
2022/12/18 12:02:37;;;;;;;;;;;22.80;34.90;;;;;;4966586;28;19968;-53
2022/12/18 12:05:05;;;;;;;;;;;22.70;35.00;;;;;;5025987;28;19974;-54
2022/12/18 12:07:30;;;;;;;;;;;22.70;35.10;;;;;;4997725;28;19917;-54
2022/12/18 12:09:59;;;;;;;;;;;22.70;34.90;;;;;;4984196;28;19925;-54
2022/12/18 12:12:45;;;;;;;;;;;22.70;35.10;;;;;;4938622;28;19919;-54
2022/12/18 12:15:16;;;;;;;;;;;22.70;35.10;;;;;;4950235;28;19919;-53
2022/12/18 12:17:44;;;;;;;;;;;22.70;34.90;;;;;;4950646;28;20282;-53
2022/12/18 12:20:25;;;;;;;;;;;22.80;34.60;;;;;;4949098;28;19972;-53
2022/12/18 12:22:56;;;;;;;;;;;22.80;34.50;;;;;;4950243;28;19949;-53
2022/12/18 12:25:30;;;;;;;;;;;23.00;34.40;;;;;;4977740;28;19925;-53
2022/12/18 12:28:19;;;;;;;;;;;23.00;34.20;;;;;;4939135;28;20344;-52
2022/12/18 12:30:57;;;;;;;;;;;23.10;34.10;;;;;;4951704;28;20096;-53
2022/12/18 12:33:29;;;;;;;;;;;23.10;34.00;;;;;;4965136;28;19915;-53
2022/12/18 12:35:59;;;;;;;;;;;23.20;34.10;;;;;;4964186;28;19921;-54
2022/12/18 12:38:26;;;;;;;;;;;23.20;34.00;;;;;;4933036;28;20013;-53
2022/12/18 12:40:53;;;;;;;;;;;23.30;34.10;;;;;;4948400;29;20028;-53
2022/12/18 12:43:21;;;;;;;;;;;23.20;34.10;;;;;;4964813;28;19938;-53
2022/12/18 12:45:54;;;;;;;;;;;23.30;34.30;;;;;;4951728;28;19990;-53
2022/12/18 12:48:22;;;;;;;;;;;23.20;34.50;;;;;;4949234;28;20013;-53
2022/12/18 12:50:48;;;;;;;;;;;23.20;34.60;;;;;;4951994;28;19911;-53
2022/12/18 12:53:22;;;;;;;;;;;23.20;34.40;;;;;;4956898;28;19929;-53
2022/12/18 12:55:47;;;;;;;;;;;23.30;34.00;;;;;;4965459;28;19915;-53
2022/12/18 12:58:18;;;;;;;;;;;23.40;33.80;;;;;;4951965;28;19926;-53
2022/12/18 13:00:49;;;;;;;;;;;23.50;33.70;;;;;;4958364;28;19918;-53
2022/12/18 13:03:33;;;;;;;;;;;23.60;33.70;;;;;;4933396;28;19926;-54
2022/12/18 13:06:00;;;;;;;;;;;23.60;33.70;;;;;;4941352;28;19992;-54
2022/12/18 13:08:26;;;;;;;;;;;23.70;33.80;;;;;;4933166;28;20009;-53
2022/12/18 13:12:55;;;;;;;;;;;23.60;34.00;;;;;;4954121;28;19964;-53
2022/12/18 13:13:47;;;;;;;;;;;23.60;34.30;;;;;;4950196;28;19914;-53
2022/12/18 13:16:13;;;;;;;;;;;23.70;34.10;;;;;;4961108;28;20344;-54
2022/12/18 13:18:38;;;;;;;;;;;23.70;34.10;;;;;;4936378;28;19966;-53
2022/12/18 13:21:08;;;;;;;;;;;23.70;34.00;;;;;;4950573;28;19964;-54
2022/12/18 13:23:34;;;;;;;;;;;23.80;34.30;;;;;;4947170;28;20021;-53
2022/12/18 13:26:19;;;;;;;;;;;23.70;34.20;;;;;;4936306;28;20516;-54
2022/12/18 13:28:48;;;;;;;;;;;23.70;34.20;;;;;;4990416;28;20280;-53
2022/12/18 13:31:32;;;;;;;;;;;23.70;34.30;;;;;;4982283;28;19915;-54
2022/12/18 13:34:09;;;;;;;;;;;23.70;34.50;;;;;;4956110;28;19968;-54
2022/12/18 13:36:35;;;;;;;;;;;23.80;34.20;;;;;;4969165;28;19997;-54
2022/12/18 13:39:20;;;;;;;;;;;23.80;34.40;;;;;;4953626;28;20006;-55
2022/12/18 13:41:47;;;;;;;;;;;23.70;34.50;;;;;;4953769;28;19968;-53
2022/12/18 13:44:24;;;;;;;;;;;23.70;34.20;;;;;;4933553;28;20017;-54
2022/12/18 13:46:50;;;;;;;;;;;23.60;34.60;;;;;;4946944;28;19989;-54
2022/12/18 13:49:23;;;;;;;;;;;23.70;34.40;;;;;;4950896;28;20340;-53
2022/12/18 13:51:49;;;;;;;;;;;23.70;34.60;;;;;;4955158;28;19915;-53
2022/12/18 13:54:14;;;;;;;;;;;23.70;34.70;;;;;;4951856;28;19941;-54
2022/12/18 13:56:42;;;;;;;;;;;23.70;34.50;;;;;;4951639;28;19922;-54
2022/12/18 13:59:17;;;;;;;;;;;23.80;34.70;;;;;;4953406;28;19922;-54
2022/12/18 14:01:43;;;;;;;;;;;23.70;34.80;;;;;;4959066;28;19914;-53
2022/12/18 14:04:16;;;;;;;;;;;23.70;34.50;;;;;;4948816;28;19918;-53
2022/12/18 14:06:45;;;;;;;;;;;23.80;34.70;;;;;;4945608;28;20421;-54
2022/12/18 14:09:13;;;;;;;;;;;23.80;34.90;;;;;;4923922;29;20021;-52
2022/12/18 14:11:38;;;;;;;;;;;23.80;34.50;;;;;;4931870;29;20000;-53
2022/12/18 14:14:07;;;;;;;;;;;23.80;34.60;;;;;;4932689;28;19915;-52
2022/12/18 14:16:32;;;;;;;;;;;23.90;34.50;;;;;;4926656;28;19929;-52
2022/12/18 14:18:58;;;;;;;;;;;23.90;34.40;;;;;;4930314;28;19915;-51
2022/12/18 14:21:25;;;;;;;;;;;24.00;34.50;;;;;;4926002;28;20326;-51
2022/12/18 14:24:02;;;;;;;;;;;23.90;34.20;;;;;;4926143;28;19976;-51
2022/12/18 14:26:29;;;;;;;;;;;24.00;34.40;;;;;;4928220;28;19914;-51
2022/12/18 14:28:55;;;;;;;;;;;24.00;34.10;;;;;;4928384;28;19965;-51
2022/12/18 14:31:24;;;;;;;;;;;23.90;34.10;;;;;;4927230;28;19923;-52